createdAt,value
2023-04-18T00:00:43.785Z,1.25
2023-04-18T00:03:10.695Z,1.08
2023-04-18T00:05:38.006Z,1.38
2023-04-18T00:08:05.451Z,1.20
2023-04-18T00:10:32.764Z,1.10
2023-04-18T00:13:00.460Z,0.80
2023-04-18T00:15:29.149Z,1.02
2023-04-18T00:18:00.770Z,1.17
2023-04-18T00:20:27.922Z,1.08
2023-04-18T00:22:55.011Z,1.25
2023-04-18T00:25:22.015Z,1.05
2023-04-18T00:27:48.934Z,1.20
2023-04-18T00:30:15.815Z,0.90
2023-04-18T00:32:42.815Z,0.98
2023-04-18T00:35:09.876Z,1.10
2023-04-18T00:37:37.327Z,1.10
2023-04-18T00:40:05.629Z,1.02
2023-04-18T00:42:33.385Z,1.10
2023-04-18T00:45:00.285Z,0.90
2023-04-18T00:47:27.195Z,1.00
2023-04-18T00:49:54.852Z,1.13
2023-04-18T00:52:21.887Z,1.00
2023-04-18T00:54:48.909Z,1.23
2023-04-18T00:57:16.418Z,0.90
2023-04-18T00:59:43.682Z,0.98
2023-04-18T01:02:10.621Z,1.13
2023-04-18T01:04:37.863Z,0.90
2023-04-18T01:07:05.975Z,1.00
2023-04-18T01:09:32.980Z,1.08
2023-04-18T01:11:59.848Z,0.93
2023-04-18T01:14:26.632Z,0.93
2023-04-18T01:16:53.550Z,1.13
2023-04-18T01:19:20.741Z,0.95
2023-04-18T01:21:48.030Z,0.80
2023-04-18T01:24:17.562Z,0.90
2023-04-18T01:26:49.551Z,1.00
2023-04-18T01:29:16.548Z,0.90
2023-04-18T01:31:43.535Z,1.08
2023-04-18T01:34:10.479Z,1.17
2023-04-18T01:36:39.166Z,1.00
2023-04-18T01:39:07.084Z,1.20
2023-04-18T01:41:33.972Z,1.38
2023-04-18T01:44:01.558Z,1.30
2023-04-18T01:48:57.040Z,1.25
2023-04-18T01:51:23.891Z,1.30
2023-04-18T01:53:51.033Z,1.30
2023-04-18T01:56:18.035Z,1.30
2023-04-18T01:58:45.043Z,1.30
2023-04-18T02:01:11.981Z,1.52
2023-04-18T02:03:39.202Z,1.58
2023-04-18T02:06:06.633Z,1.33
2023-04-18T02:08:35.898Z,1.40
2023-04-18T02:11:03.075Z,1.30
2023-04-18T02:13:29.926Z,1.38
2023-04-18T02:15:56.899Z,1.70
2023-04-18T02:18:25.439Z,1.63
2023-04-18T02:20:52.682Z,1.50
2023-04-18T02:23:19.526Z,1.63
2023-04-18T02:25:46.597Z,1.55
2023-04-18T02:28:13.629Z,1.42
2023-04-18T02:30:40.409Z,1.50
2023-04-18T02:33:07.325Z,1.80
2023-04-18T02:35:34.188Z,1.70
2023-04-18T02:38:01.032Z,1.77
2023-04-18T02:40:27.863Z,1.70
2023-04-18T02:42:54.634Z,1.70
2023-04-18T02:45:21.565Z,1.80
2023-04-18T02:47:55.234Z,1.88
2023-04-18T02:50:24.190Z,1.67
2023-04-18T02:52:51.035Z,1.95
2023-04-18T02:55:18.241Z,1.90
2023-04-18T02:57:45.070Z,2.15
2023-04-18T03:00:13.567Z,1.80
2023-04-18T03:02:40.726Z,1.75
2023-04-18T03:05:08.149Z,1.73
2023-04-18T03:07:35.458Z,1.73
2023-04-18T03:10:02.250Z,1.70
2023-04-18T03:12:29.209Z,1.70
2023-04-18T03:14:56.128Z,2.30
2023-04-18T03:17:23.336Z,2.20
2023-04-18T03:19:50.233Z,1.98
2023-04-18T03:22:17.888Z,1.75
2023-04-18T03:24:45.115Z,2.15
2023-04-18T03:27:13.707Z,1.85
2023-04-18T03:29:40.800Z,1.90
2023-04-18T03:32:07.678Z,1.85
2023-04-18T03:34:34.495Z,1.90
2023-04-18T03:37:01.470Z,2.00
2023-04-18T03:39:28.306Z,1.75
2023-04-18T03:41:55.313Z,1.98
2023-04-18T03:44:22.133Z,1.95
2023-04-18T03:46:49.148Z,1.95
2023-04-18T03:49:16.146Z,2.10
2023-04-18T03:51:49.754Z,2.20
2023-04-18T03:54:17.337Z,2.65
2023-04-18T03:59:12.251Z,2.08
2023-04-18T04:01:39.160Z,2.40
2023-04-18T04:04:06.809Z,2.30
2023-04-18T04:09:01.129Z,2.40
2023-04-18T04:11:28.021Z,2.95
2023-04-18T04:13:54.951Z,2.88
2023-04-18T04:16:21.924Z,2.63
2023-04-18T04:18:48.861Z,3.40
2023-04-18T04:21:15.869Z,3.30
2023-04-18T04:23:42.876Z,3.65
2023-04-18T04:26:10.091Z,3.53
2023-04-18T04:28:37.155Z,3.35
2023-04-18T04:31:08.476Z,3.00
2023-04-18T04:33:38.724Z,3.92
2023-04-18T04:36:07.753Z,3.40
2023-04-18T04:38:38.151Z,3.83
2023-04-18T04:41:06.838Z,4.00
2023-04-18T04:43:34.261Z,3.35
2023-04-18T04:46:04.385Z,3.33
2023-04-18T04:48:31.294Z,3.85
2023-04-18T04:51:00.784Z,3.53
2023-04-18T04:53:32.204Z,3.67
2023-04-18T04:55:59.348Z,3.67
2023-04-18T04:58:26.683Z,3.55
2023-04-18T05:00:53.946Z,3.85
2023-04-18T05:03:21.332Z,3.97
2023-04-18T05:05:48.758Z,3.45
2023-04-18T05:08:15.786Z,3.60
2023-04-18T05:10:43.442Z,3.47
2023-04-18T05:15:49.078Z,3.22
2023-04-18T05:18:16.364Z,3.58
2023-04-18T05:20:45.624Z,3.25
2023-04-18T05:23:16.305Z,3.40
2023-04-18T05:25:43.173Z,3.35
2023-04-18T05:28:10.004Z,3.65
2023-04-18T05:30:37.107Z,3.47
2023-04-18T05:33:03.985Z,4.07
2023-04-18T05:35:31.480Z,3.95
2023-04-18T05:37:59.337Z,3.38
2023-04-18T05:40:29.976Z,3.80
2023-04-18T05:42:56.821Z,3.97
2023-04-18T05:45:23.616Z,3.92
2023-04-18T05:47:51.519Z,3.93
2023-04-18T05:50:18.426Z,4.03
2023-04-18T05:52:45.341Z,4.15
2023-04-18T05:55:12.150Z,3.78
2023-04-18T05:57:38.944Z,3.53
2023-04-18T06:00:07.119Z,3.43
2023-04-18T06:02:34.270Z,3.78
2023-04-18T06:05:01.590Z,3.38
2023-04-18T06:07:29.179Z,3.42
2023-04-18T06:09:56.634Z,3.55
2023-04-18T06:12:24.670Z,3.67
2023-04-18T06:14:52.249Z,3.88
2023-04-18T06:17:19.268Z,3.20
2023-04-18T06:19:46.273Z,3.17
2023-04-18T06:22:13.146Z,3.65
2023-04-18T06:24:39.948Z,3.05
2023-04-18T06:27:09.377Z,3.07
2023-04-18T06:30:12.100Z,3.28
2023-04-18T06:32:31.786Z,3.00
2023-04-18T06:34:58.722Z,3.13
2023-04-18T06:37:25.853Z,3.28
2023-04-18T06:39:52.841Z,3.30
2023-04-18T06:42:22.161Z,3.60
2023-04-18T06:44:49.828Z,3.38
2023-04-18T06:47:16.959Z,3.60
2023-04-18T06:49:43.839Z,3.53
2023-04-18T06:52:10.736Z,3.33
2023-04-18T06:54:37.588Z,3.65
2023-04-18T06:57:04.527Z,3.80
2023-04-18T06:59:31.362Z,3.22
2023-04-18T07:01:58.186Z,3.55
2023-04-18T07:04:25.232Z,3.78
2023-04-18T07:06:52.588Z,3.72
2023-04-18T07:09:20.293Z,3.63
2023-04-18T07:14:14.213Z,3.88
2023-04-18T07:16:41.695Z,3.55
2023-04-18T07:19:08.588Z,3.88
2023-04-18T07:21:35.482Z,3.53
2023-04-18T07:24:02.258Z,3.28
2023-04-18T07:26:29.216Z,3.40
2023-04-18T07:28:56.073Z,3.53
2023-04-18T07:31:25.705Z,3.67
2023-04-18T07:33:52.625Z,3.55
2023-04-18T07:39:51.345Z,3.30
2023-04-18T07:42:26.678Z,4.03
2023-04-18T07:44:58.838Z,3.67
2023-04-18T07:47:29.866Z,3.10
2023-04-18T07:50:04.019Z,3.70
2023-04-18T07:52:31.131Z,3.70
2023-04-18T07:54:58.009Z,3.88
2023-04-18T07:57:24.872Z,3.45
2023-04-18T07:59:53.834Z,3.63
2023-04-18T08:02:21.739Z,3.30
2023-04-18T08:04:50.909Z,3.25
2023-04-18T08:07:18.062Z,3.72
2023-04-18T08:09:45.131Z,3.50
2023-04-18T08:12:18.979Z,3.70
2023-04-18T08:14:55.492Z,3.88
2023-04-18T08:17:33.410Z,3.70
2023-04-18T08:20:09.194Z,3.67
2023-04-18T08:22:49.336Z,3.22
2023-04-18T08:25:33.344Z,3.22
2023-04-18T08:28:00.539Z,4.20
2023-04-18T08:30:32.240Z,3.53
2023-04-18T08:33:02.308Z,3.22
2023-04-18T08:35:29.242Z,3.58
2023-04-18T08:37:56.124Z,3.85
2023-04-18T08:40:23.156Z,3.88
2023-04-18T08:42:53.819Z,3.60
2023-04-18T08:45:21.280Z,3.42
2023-04-18T08:47:48.374Z,3.53
2023-04-18T08:50:16.610Z,4.10
2023-04-18T08:52:48.882Z,4.05
2023-04-18T08:55:16.455Z,3.72
2023-04-18T08:57:44.690Z,3.63
2023-04-18T09:00:12.463Z,3.88
2023-04-18T09:02:46.885Z,3.80
2023-04-18T09:05:20.107Z,3.38
2023-04-18T09:07:53.143Z,3.95
2023-04-18T09:10:33.699Z,3.33
2023-04-18T09:13:04.291Z,3.83
2023-04-18T09:15:31.548Z,4.15
2023-04-18T09:18:03.263Z,3.63
2023-04-18T09:20:42.445Z,3.72
2023-04-18T09:23:14.519Z,3.72
2023-04-18T09:25:44.512Z,3.65
2023-04-18T09:28:33.228Z,4.03
2023-04-18T09:31:12.322Z,3.60
2023-04-18T09:33:44.751Z,3.55
2023-04-18T09:36:23.620Z,3.22
2023-04-18T09:38:56.281Z,3.80
2023-04-18T09:41:24.411Z,3.65
2023-04-18T09:44:15.083Z,3.65
2023-04-18T09:46:46.514Z,3.72
2023-04-18T09:49:14.464Z,3.55
2023-04-18T09:51:43.125Z,3.78
2023-04-18T09:54:17.316Z,4.10
2023-04-18T09:56:47.144Z,4.32
2023-04-18T09:59:37.009Z,3.60
2023-04-18T10:02:13.418Z,3.38
2023-04-18T10:04:42.911Z,3.53
2023-04-18T10:07:11.395Z,3.47
2023-04-18T10:09:42.654Z,3.20
2023-04-18T10:12:12.666Z,3.67
2023-04-18T10:14:43.262Z,3.83
2023-04-18T10:17:11.755Z,3.65
2023-04-18T10:19:42.052Z,3.40
2023-04-18T10:22:09.089Z,3.60
2023-04-18T10:24:54.513Z,3.40
2023-04-18T10:27:49.298Z,3.03
2023-04-18T10:30:16.990Z,3.45
2023-04-18T10:35:13.627Z,3.85
2023-04-18T10:37:51.945Z,3.70
2023-04-18T10:43:02.279Z,3.42
2023-04-18T10:45:32.497Z,3.83
2023-04-18T10:48:32.680Z,3.47
2023-04-18T10:51:16.531Z,3.63
2023-04-18T10:53:56.530Z,3.35
2023-04-18T10:56:26.059Z,3.65
2023-04-18T10:58:54.053Z,3.92
2023-04-18T11:04:00.419Z,3.58
2023-04-18T11:06:27.628Z,3.92
2023-04-18T11:09:13.635Z,3.63
2023-04-18T11:11:41.720Z,3.58
2023-04-18T11:14:08.669Z,3.63
2023-04-18T11:16:35.978Z,3.42
2023-04-18T11:19:26.629Z,4.20
2023-04-18T11:22:00.013Z,3.78
2023-04-18T11:24:26.960Z,4.07
2023-04-18T11:26:56.029Z,3.90
2023-04-18T11:29:23.286Z,3.63
2023-04-18T11:31:54.055Z,3.75
2023-04-18T11:34:28.582Z,3.47
2023-04-18T11:36:55.527Z,3.25
2023-04-18T11:39:22.996Z,3.70
2023-04-18T11:41:51.028Z,3.53
2023-04-18T11:44:24.462Z,3.58
2023-04-18T11:46:54.499Z,3.58
2023-04-18T11:49:26.720Z,3.50
2023-04-18T11:51:54.613Z,3.30
2023-04-18T11:54:42.402Z,3.53
2023-04-18T11:57:28.298Z,3.05
2023-04-18T11:59:59.264Z,3.53
2023-04-18T12:02:40.739Z,3.38
2023-04-18T12:05:08.339Z,3.78
2023-04-18T12:10:26.692Z,3.40
2023-04-18T12:12:58.999Z,3.60
2023-04-18T12:16:45.231Z,3.85
2023-04-18T12:20:20.885Z,3.85
2023-04-18T12:27:23.192Z,3.40
2023-04-18T12:30:01.922Z,3.33
2023-04-18T12:32:28.807Z,3.25
2023-04-18T12:34:55.927Z,3.70
2023-04-18T12:37:25.997Z,3.40
2023-04-18T12:39:53.212Z,3.65
2023-04-18T12:42:20.312Z,3.92
2023-04-18T12:44:48.097Z,3.92
2023-04-18T12:47:15.431Z,3.85
2023-04-18T12:49:42.464Z,3.75
2023-04-18T12:52:11.414Z,3.80
2023-04-18T12:54:38.391Z,3.67
2023-04-18T12:57:05.499Z,4.00
2023-04-18T12:59:32.320Z,3.67
2023-04-18T13:01:59.221Z,3.73
2023-04-18T13:04:26.938Z,3.47
2023-04-18T13:06:54.020Z,3.78
2023-04-18T13:09:21.460Z,3.53
2023-04-18T13:11:49.727Z,3.85
2023-04-18T13:14:16.695Z,3.55
2023-04-18T13:16:44.443Z,4.10
2023-04-18T13:19:11.502Z,3.22
2023-04-18T13:21:38.786Z,4.60
2023-04-18T13:24:06.573Z,4.05
2023-04-18T13:26:35.950Z,4.25
2023-04-18T13:29:03.443Z,3.65
2023-04-18T13:31:33.466Z,3.80
2023-04-18T13:34:00.843Z,4.15
2023-04-18T13:36:27.909Z,3.92
2023-04-18T13:41:23.771Z,3.13
2023-04-18T13:43:51.182Z,3.13
2023-04-18T13:46:18.910Z,4.00
2023-04-18T13:48:46.447Z,3.60
2023-04-18T13:51:13.917Z,3.45
2023-04-18T13:53:41.435Z,3.53
2023-04-18T13:58:36.114Z,2.90
2023-04-18T14:01:02.993Z,3.40
2023-04-18T14:03:30.649Z,3.05
2023-04-18T14:05:59.576Z,3.10
2023-04-18T14:08:26.900Z,2.88
2023-04-18T14:10:54.335Z,3.00
2023-04-18T14:13:21.737Z,3.25
2023-04-18T14:15:49.019Z,2.83
2023-04-18T14:25:17.330Z,2.97
2023-04-18T14:32:36.104Z,2.58
2023-04-18T14:38:47.399Z,2.38
2023-04-18T14:42:03.925Z,2.55
2023-04-18T14:49:01.497Z,2.80
2023-04-18T14:52:47.161Z,2.65
2023-04-18T14:55:54.654Z,2.38
2023-04-18T14:59:10.278Z,2.28
2023-04-18T15:04:55.473Z,2.22
2023-04-18T15:07:48.204Z,1.83
2023-04-18T15:10:41.377Z,2.30
2023-04-18T15:19:40.839Z,1.90
2023-04-18T15:26:23.227Z,1.50
2023-04-18T15:29:32.710Z,1.58
2023-04-18T15:33:10.159Z,1.30
2023-04-18T15:36:14.807Z,1.40
2023-04-18T15:38:42.953Z,1.52
2023-04-18T15:41:09.853Z,1.30
2023-04-18T15:43:36.690Z,1.30
2023-04-18T15:52:52.435Z,1.30
2023-04-18T15:55:34.067Z,1.10
2023-04-18T16:02:45.748Z,1.35
2023-04-18T16:09:54.767Z,0.98
2023-04-18T16:15:27.312Z,1.30
2023-04-18T16:18:17.331Z,1.02
2023-04-18T16:20:52.559Z,1.05
2023-04-18T16:23:20.453Z,1.00
2023-04-18T16:25:48.065Z,1.17
2023-04-18T16:30:43.831Z,1.17
2023-04-18T16:33:12.997Z,1.05
2023-04-18T16:35:40.521Z,1.40
2023-04-18T16:38:08.092Z,1.20
2023-04-18T16:40:36.048Z,1.08
2023-04-18T16:43:17.866Z,1.00
2023-04-18T16:50:37.151Z,1.05
2023-04-18T16:53:22.946Z,1.55
2023-04-18T16:56:08.025Z,1.55
2023-04-18T16:59:45.148Z,1.17
2023-04-18T17:02:02.857Z,1.00
2023-04-18T17:04:31.643Z,1.10
2023-04-18T17:06:58.613Z,1.10
2023-04-18T17:09:25.626Z,1.20
2023-04-18T17:11:52.527Z,1.02
2023-04-18T17:14:26.073Z,1.23
2023-04-18T17:20:28.550Z,1.30
2023-04-18T17:23:32.884Z,1.30
2023-04-18T17:26:00.206Z,1.48
2023-04-18T17:28:44.478Z,1.50
2023-04-18T17:31:44.211Z,0.98
2023-04-18T17:34:11.149Z,1.00
2023-04-18T17:36:48.940Z,0.98
2023-04-18T17:40:00.782Z,0.95
2023-04-18T17:45:35.237Z,1.20
2023-04-18T17:48:29.060Z,0.80
2023-04-18T17:51:02.993Z,1.10
2023-04-18T17:53:32.022Z,1.00
2023-04-18T17:55:59.629Z,1.17
2023-04-18T17:58:27.141Z,1.17
2023-04-18T18:00:54.170Z,1.20
2023-04-18T18:03:21.281Z,0.90
2023-04-18T18:05:49.734Z,1.10
2023-04-18T18:08:17.192Z,1.17
2023-04-18T18:10:46.532Z,0.80
2023-04-18T18:13:40.287Z,1.00
2023-04-18T18:17:04.883Z,1.17
2023-04-18T18:19:46.433Z,0.93
2023-04-18T18:22:30.863Z,1.08
2023-04-18T18:28:01.816Z,0.82
2023-04-18T18:33:37.352Z,0.93
2023-04-18T18:36:30.845Z,1.40
2023-04-18T18:39:28.829Z,1.02
2023-04-18T18:42:09.671Z,0.90
2023-04-18T18:47:43.998Z,1.20
2023-04-18T18:50:42.425Z,1.05
2023-04-18T18:59:22.881Z,1.33
2023-04-18T19:02:17.797Z,1.30
2023-04-18T19:04:52.500Z,1.00
2023-04-18T19:07:54.341Z,1.13
2023-04-18T19:10:26.243Z,1.15
2023-04-18T19:13:01.808Z,1.35
2023-04-18T19:15:31.451Z,0.98
2023-04-18T19:18:16.219Z,1.40
2023-04-18T19:20:52.332Z,1.10
2023-04-18T19:23:28.261Z,0.93
2023-04-18T19:29:16.689Z,0.98
2023-04-18T19:31:46.525Z,0.90
2023-04-18T19:34:25.834Z,0.88
2023-04-18T19:37:30.210Z,1.00
2023-04-18T19:40:10.198Z,0.95
2023-04-18T19:42:45.330Z,0.95
2023-04-18T19:45:24.801Z,0.82
2023-04-18T19:47:59.394Z,0.90
2023-04-18T19:50:45.307Z,0.93
2023-04-18T19:53:39.600Z,0.70
2023-04-18T19:56:19.123Z,1.00
2023-04-18T19:58:51.362Z,0.75
2023-04-18T20:01:27.946Z,1.20
2023-04-18T20:04:03.459Z,0.98
2023-04-18T20:06:39.093Z,1.05
2023-04-18T20:09:24.347Z,0.88
2023-04-18T20:11:57.983Z,0.93
2023-04-18T20:14:26.953Z,1.00
2023-04-18T20:17:02.719Z,0.98
2023-04-18T20:19:31.967Z,1.20
2023-04-18T20:22:07.013Z,1.05
2023-04-18T20:24:41.377Z,1.10
2023-04-18T20:27:21.287Z,1.15
2023-04-18T20:30:12.323Z,0.93
2023-04-18T20:32:42.224Z,0.98
2023-04-18T20:35:14.720Z,0.95
2023-04-18T20:37:47.834Z,0.80
2023-04-18T20:40:19.357Z,0.88
2023-04-18T20:42:54.061Z,1.10
2023-04-18T20:45:28.543Z,0.82
2023-04-18T20:48:03.685Z,1.00
2023-04-18T20:50:36.956Z,1.08
2023-04-18T20:55:59.732Z,0.93
2023-04-18T20:58:32.790Z,1.30
2023-04-18T21:01:11.795Z,1.45
2023-04-18T21:03:46.745Z,1.10
2023-04-18T21:06:27.857Z,0.95
2023-04-18T21:09:08.887Z,1.00
2023-04-18T21:11:44.411Z,1.00
2023-04-18T21:14:18.078Z,1.13
2023-04-18T21:16:49.812Z,1.00
2023-04-18T21:19:37.272Z,1.27
2023-04-18T21:22:04.815Z,1.38
2023-04-18T21:24:36.805Z,0.98
2023-04-18T21:27:09.189Z,1.23
2023-04-18T21:29:41.119Z,1.38
2023-04-18T21:32:22.529Z,1.23
2023-04-18T21:34:54.471Z,1.20
2023-04-18T21:37:32.565Z,1.10
2023-04-18T21:40:05.291Z,1.30
2023-04-18T21:42:38.109Z,1.40
2023-04-18T21:45:15.901Z,1.45
2023-04-18T21:47:52.383Z,1.20
2023-04-18T21:50:24.350Z,1.10
2023-04-18T21:53:03.394Z,1.60
2023-04-18T21:55:37.032Z,1.67
2023-04-18T21:58:16.802Z,1.23
2023-04-18T22:00:50.062Z,1.20
2023-04-18T22:03:22.117Z,1.20
2023-04-18T22:06:05.093Z,1.00
2023-04-18T22:08:39.977Z,1.73
2023-04-18T22:11:20.254Z,2.10
2023-04-18T22:13:58.332Z,2.33
2023-04-18T22:16:34.679Z,1.83
2023-04-18T22:19:08.259Z,2.05
2023-04-18T22:21:49.969Z,1.40
2023-04-18T22:27:23.095Z,1.95
2023-04-18T22:30:12.857Z,1.35
2023-04-18T22:32:55.081Z,1.48
2023-04-18T22:35:33.321Z,1.45
2023-04-18T22:38:13.186Z,1.60
2023-04-18T22:40:47.526Z,1.80
2023-04-18T22:43:33.227Z,1.70
2023-04-18T22:46:06.306Z,1.52
2023-04-18T22:48:35.362Z,1.50
2023-04-18T22:51:08.102Z,1.92
2023-04-18T22:53:42.114Z,1.40
2023-04-18T22:56:16.329Z,1.45
2023-04-18T22:59:07.037Z,1.13
2023-04-18T23:01:39.069Z,1.50
2023-04-18T23:04:10.357Z,1.45
2023-04-18T23:06:44.736Z,1.88
2023-04-18T23:09:22.022Z,1.40
2023-04-18T23:11:51.586Z,1.58
2023-04-18T23:14:23.995Z,1.55
2023-04-18T23:16:59.124Z,1.60
2023-04-18T23:19:30.377Z,1.60
2023-04-18T23:22:07.100Z,1.40
2023-04-18T23:24:38.312Z,1.48
2023-04-18T23:27:10.297Z,1.48
2023-04-18T23:29:43.706Z,1.52
2023-04-18T23:32:24.175Z,1.60
2023-04-18T23:34:55.465Z,1.50
2023-04-18T23:37:27.978Z,1.30
2023-04-18T23:40:06.928Z,1.35
2023-04-18T23:42:47.532Z,1.50
2023-04-18T23:45:20.164Z,1.70
2023-04-18T23:47:49.592Z,1.80
2023-04-18T23:50:26.242Z,1.40
2023-04-18T23:53:09.828Z,1.52
2023-04-18T23:55:45.584Z,1.80
2023-04-18T23:58:27.703Z,1.80
